sensor_id;sensor_type;location;lat;lon;timestamp;temperature;humidity
7030;DHT22;3556;53.500;10.176;2023-06-04T00:02:15;10.20;99.90
7030;DHT22;3556;53.500;10.176;2023-06-04T00:04:40;10.10;99.90
7030;DHT22;3556;53.500;10.176;2023-06-04T00:07:06;10.00;99.90
7030;DHT22;3556;53.500;10.176;2023-06-04T00:09:32;10.00;99.90
7030;DHT22;3556;53.500;10.176;2023-06-04T00:11:57;9.90;99.90
7030;DHT22;3556;53.500;10.176;2023-06-04T00:14:23;9.90;99.90
7030;DHT22;3556;53.500;10.176;2023-06-04T00:16:49;9.90;99.90
7030;DHT22;3556;53.500;10.176;2023-06-04T00:19:14;9.80;99.90
7030;DHT22;3556;53.500;10.176;2023-06-04T00:21:40;9.70;99.90
7030;DHT22;3556;53.500;10.176;2023-06-04T00:24:06;9.70;99.90
7030;DHT22;3556;53.500;10.176;2023-06-04T00:26:32;9.70;99.90
7030;DHT22;3556;53.500;10.176;2023-06-04T00:28:57;9.70;99.90
7030;DHT22;3556;53.500;10.176;2023-06-04T00:31:23;9.60;99.90
7030;DHT22;3556;53.500;10.176;2023-06-04T00:33:49;9.60;99.90
7030;DHT22;3556;53.500;10.176;2023-06-04T00:36:14;9.50;99.90
7030;DHT22;3556;53.500;10.176;2023-06-04T00:38:40;9.50;99.90
7030;DHT22;3556;53.500;10.176;2023-06-04T00:41:06;9.50;99.90
7030;DHT22;3556;53.500;10.176;2023-06-04T00:43:31;9.40;99.90
7030;DHT22;3556;53.500;10.176;2023-06-04T00:45:58;9.40;99.90
7030;DHT22;3556;53.500;10.176;2023-06-04T00:48:24;9.30;99.90
7030;DHT22;3556;53.500;10.176;2023-06-04T00:50:53;9.30;99.90
7030;DHT22;3556;53.500;10.176;2023-06-04T00:53:20;9.30;99.90
7030;DHT22;3556;53.500;10.176;2023-06-04T00:55:47;9.20;99.90
7030;DHT22;3556;53.500;10.176;2023-06-04T00:58:13;9.10;99.90
7030;DHT22;3556;53.500;10.176;2023-06-04T01:00:41;9.10;99.90
7030;DHT22;3556;53.500;10.176;2023-06-04T01:03:12;9.10;99.90
7030;DHT22;3556;53.500;10.176;2023-06-04T01:05:48;9.00;99.90
7030;DHT22;3556;53.500;10.176;2023-06-04T01:08:15;9.00;99.90
7030;DHT22;3556;53.500;10.176;2023-06-04T01:10:54;8.90;99.90
7030;DHT22;3556;53.500;10.176;2023-06-04T01:13:21;8.90;99.90
7030;DHT22;3556;53.500;10.176;2023-06-04T01:15:47;8.90;99.90
7030;DHT22;3556;53.500;10.176;2023-06-04T01:18:15;8.80;99.90
7030;DHT22;3556;53.500;10.176;2023-06-04T01:20:57;8.80;99.90
7030;DHT22;3556;53.500;10.176;2023-06-04T01:23:45;8.70;99.90
7030;DHT22;3556;53.500;10.176;2023-06-04T01:26:11;8.70;99.90
7030;DHT22;3556;53.500;10.176;2023-06-04T01:28:38;8.70;99.90
7030;DHT22;3556;53.500;10.176;2023-06-04T01:31:05;8.60;99.90
7030;DHT22;3556;53.500;10.176;2023-06-04T01:33:33;8.70;99.90
7030;DHT22;3556;53.500;10.176;2023-06-04T01:35:59;8.60;99.90
7030;DHT22;3556;53.500;10.176;2023-06-04T01:38:25;8.50;99.90
7030;DHT22;3556;53.500;10.176;2023-06-04T01:40:51;8.50;99.90
7030;DHT22;3556;53.500;10.176;2023-06-04T01:43:21;8.50;99.90
7030;DHT22;3556;53.500;10.176;2023-06-04T01:45:47;8.50;99.90
7030;DHT22;3556;53.500;10.176;2023-06-04T01:48:13;8.40;99.90
7030;DHT22;3556;53.500;10.176;2023-06-04T01:50:39;8.40;99.90
7030;DHT22;3556;53.500;10.176;2023-06-04T01:53:05;8.40;99.90
7030;DHT22;3556;53.500;10.176;2023-06-04T01:55:31;8.30;99.90
7030;DHT22;3556;53.500;10.176;2023-06-04T01:57:59;8.30;99.90
7030;DHT22;3556;53.500;10.176;2023-06-04T02:00:25;8.30;99.90
7030;DHT22;3556;53.500;10.176;2023-06-04T02:02:51;8.30;99.90
7030;DHT22;3556;53.500;10.176;2023-06-04T02:05:17;8.20;99.90
7030;DHT22;3556;53.500;10.176;2023-06-04T02:07:45;8.20;99.90
7030;DHT22;3556;53.500;10.176;2023-06-04T02:10:15;8.20;99.90
7030;DHT22;3556;53.500;10.176;2023-06-04T02:15:18;8.10;99.90
7030;DHT22;3556;53.500;10.176;2023-06-04T02:17:44;8.10;99.90
7030;DHT22;3556;53.500;10.176;2023-06-04T02:20:11;8.00;99.90
7030;DHT22;3556;53.500;10.176;2023-06-04T02:22:37;8.00;99.90
7030;DHT22;3556;53.500;10.176;2023-06-04T02:25:04;8.00;99.90
7030;DHT22;3556;53.500;10.176;2023-06-04T02:27:30;7.90;99.90
7030;DHT22;3556;53.500;10.176;2023-06-04T02:29:56;7.90;99.90
7030;DHT22;3556;53.500;10.176;2023-06-04T02:32:21;7.90;99.90
7030;DHT22;3556;53.500;10.176;2023-06-04T02:34:47;7.90;99.90
7030;DHT22;3556;53.500;10.176;2023-06-04T02:37:14;7.80;99.90
7030;DHT22;3556;53.500;10.176;2023-06-04T02:39:40;7.80;99.90
7030;DHT22;3556;53.500;10.176;2023-06-04T02:42:06;7.80;99.90
7030;DHT22;3556;53.500;10.176;2023-06-04T02:44:31;7.80;99.90
7030;DHT22;3556;53.500;10.176;2023-06-04T02:46:57;7.70;99.90
7030;DHT22;3556;53.500;10.176;2023-06-04T02:49:23;7.70;99.90
7030;DHT22;3556;53.500;10.176;2023-06-04T02:51:49;7.70;99.90
7030;DHT22;3556;53.500;10.176;2023-06-04T02:54:15;7.60;99.90
7030;DHT22;3556;53.500;10.176;2023-06-04T02:56:40;7.60;99.90
7030;DHT22;3556;53.500;10.176;2023-06-04T02:59:06;7.60;99.90
7030;DHT22;3556;53.500;10.176;2023-06-04T03:01:35;7.50;99.90
7030;DHT22;3556;53.500;10.176;2023-06-04T03:04:01;7.50;99.90
7030;DHT22;3556;53.500;10.176;2023-06-04T03:06:30;7.50;99.90
7030;DHT22;3556;53.500;10.176;2023-06-04T03:08:57;7.50;99.90
7030;DHT22;3556;53.500;10.176;2023-06-04T03:11:23;7.50;99.90
7030;DHT22;3556;53.500;10.176;2023-06-04T03:13:49;7.40;99.90
7030;DHT22;3556;53.500;10.176;2023-06-04T03:16:17;7.40;99.90
7030;DHT22;3556;53.500;10.176;2023-06-04T03:18:43;7.40;99.90
7030;DHT22;3556;53.500;10.176;2023-06-04T03:21:09;7.40;99.90
7030;DHT22;3556;53.500;10.176;2023-06-04T03:23:37;7.40;99.90
7030;DHT22;3556;53.500;10.176;2023-06-04T03:26:03;7.40;99.90
7030;DHT22;3556;53.500;10.176;2023-06-04T03:28:30;7.30;99.90
7030;DHT22;3556;53.500;10.176;2023-06-04T03:30:55;7.30;99.90
7030;DHT22;3556;53.500;10.176;2023-06-04T03:33:21;7.30;99.90
7030;DHT22;3556;53.500;10.176;2023-06-04T03:35:46;7.30;99.90
7030;DHT22;3556;53.500;10.176;2023-06-04T03:38:14;7.30;99.90
7030;DHT22;3556;53.500;10.176;2023-06-04T03:40:40;7.30;99.90
7030;DHT22;3556;53.500;10.176;2023-06-04T03:43:06;7.30;99.90
7030;DHT22;3556;53.500;10.176;2023-06-04T03:45:31;7.20;99.90
7030;DHT22;3556;53.500;10.176;2023-06-04T03:47:57;7.30;99.90
7030;DHT22;3556;53.500;10.176;2023-06-04T03:50:23;7.30;99.90
7030;DHT22;3556;53.500;10.176;2023-06-04T03:52:48;7.30;99.90
7030;DHT22;3556;53.500;10.176;2023-06-04T03:55:14;7.20;99.90
7030;DHT22;3556;53.500;10.176;2023-06-04T03:57:40;7.30;99.90
7030;DHT22;3556;53.500;10.176;2023-06-04T04:00:07;7.30;99.90
7030;DHT22;3556;53.500;10.176;2023-06-04T04:02:34;7.30;99.90
7030;DHT22;3556;53.500;10.176;2023-06-04T04:04:59;7.30;99.90
7030;DHT22;3556;53.500;10.176;2023-06-04T04:07:25;7.40;99.90
7030;DHT22;3556;53.500;10.176;2023-06-04T04:09:53;7.40;99.90
7030;DHT22;3556;53.500;10.176;2023-06-04T04:12:19;7.40;99.90
7030;DHT22;3556;53.500;10.176;2023-06-04T04:14:45;7.40;99.90
7030;DHT22;3556;53.500;10.176;2023-06-04T04:17:15;7.50;99.90
7030;DHT22;3556;53.500;10.176;2023-06-04T04:19:41;7.50;99.90
7030;DHT22;3556;53.500;10.176;2023-06-04T04:22:06;7.60;99.90
7030;DHT22;3556;53.500;10.176;2023-06-04T04:24:32;7.60;99.90
7030;DHT22;3556;53.500;10.176;2023-06-04T04:27:00;7.60;99.90
7030;DHT22;3556;53.500;10.176;2023-06-04T04:29:29;7.70;99.90
7030;DHT22;3556;53.500;10.176;2023-06-04T04:31:58;7.70;99.90
7030;DHT22;3556;53.500;10.176;2023-06-04T04:34:26;7.80;99.90
7030;DHT22;3556;53.500;10.176;2023-06-04T04:36:53;7.80;99.90
7030;DHT22;3556;53.500;10.176;2023-06-04T04:39:22;7.90;99.90
7030;DHT22;3556;53.500;10.176;2023-06-04T04:41:48;8.00;99.90
7030;DHT22;3556;53.500;10.176;2023-06-04T04:44:14;8.10;99.90
7030;DHT22;3556;53.500;10.176;2023-06-04T04:46:40;8.20;99.90
7030;DHT22;3556;53.500;10.176;2023-06-04T04:49:05;8.30;99.90
7030;DHT22;3556;53.500;10.176;2023-06-04T04:51:31;8.40;99.90
7030;DHT22;3556;53.500;10.176;2023-06-04T04:53:57;8.50;99.90
7030;DHT22;3556;53.500;10.176;2023-06-04T04:56:25;8.60;99.90
7030;DHT22;3556;53.500;10.176;2023-06-04T04:58:52;8.70;99.90
7030;DHT22;3556;53.500;10.176;2023-06-04T05:01:18;8.80;99.90
7030;DHT22;3556;53.500;10.176;2023-06-04T05:03:43;8.90;99.90
7030;DHT22;3556;53.500;10.176;2023-06-04T05:06:09;9.00;99.90
7030;DHT22;3556;53.500;10.176;2023-06-04T05:08:35;9.10;99.90
7030;DHT22;3556;53.500;10.176;2023-06-04T05:11:00;9.30;99.90
7030;DHT22;3556;53.500;10.176;2023-06-04T05:13:26;9.40;99.90
7030;DHT22;3556;53.500;10.176;2023-06-04T05:15:51;9.60;99.90
7030;DHT22;3556;53.500;10.176;2023-06-04T05:18:20;9.70;99.90
7030;DHT22;3556;53.500;10.176;2023-06-04T05:20:46;9.80;99.90
7030;DHT22;3556;53.500;10.176;2023-06-04T05:23:12;10.00;99.90
7030;DHT22;3556;53.500;10.176;2023-06-04T05:25:38;10.10;99.90
7030;DHT22;3556;53.500;10.176;2023-06-04T05:28:04;10.20;99.90
7030;DHT22;3556;53.500;10.176;2023-06-04T05:30:31;10.30;99.90
7030;DHT22;3556;53.500;10.176;2023-06-04T05:32:57;10.40;99.90
7030;DHT22;3556;53.500;10.176;2023-06-04T05:35:22;10.60;99.90
7030;DHT22;3556;53.500;10.176;2023-06-04T05:37:48;10.70;99.90
7030;DHT22;3556;53.500;10.176;2023-06-04T05:40:19;10.80;99.90
7030;DHT22;3556;53.500;10.176;2023-06-04T05:42:45;11.00;99.90
7030;DHT22;3556;53.500;10.176;2023-06-04T05:45:10;11.10;99.90
7030;DHT22;3556;53.500;10.176;2023-06-04T05:47:36;11.20;99.90
7030;DHT22;3556;53.500;10.176;2023-06-04T05:50:02;11.30;99.90
7030;DHT22;3556;53.500;10.176;2023-06-04T05:52:28;11.50;99.90
7030;DHT22;3556;53.500;10.176;2023-06-04T05:54:53;11.60;99.90
7030;DHT22;3556;53.500;10.176;2023-06-04T05:57:20;11.70;99.90
7030;DHT22;3556;53.500;10.176;2023-06-04T05:59:46;11.90;99.90
7030;DHT22;3556;53.500;10.176;2023-06-04T06:02:11;12.00;99.90
7030;DHT22;3556;53.500;10.176;2023-06-04T06:04:40;12.10;99.90
7030;DHT22;3556;53.500;10.176;2023-06-04T06:07:06;12.20;99.90
7030;DHT22;3556;53.500;10.176;2023-06-04T06:09:31;12.40;99.90
7030;DHT22;3556;53.500;10.176;2023-06-04T06:11:57;12.50;99.90
7030;DHT22;3556;53.500;10.176;2023-06-04T06:14:23;12.60;99.90
7030;DHT22;3556;53.500;10.176;2023-06-04T06:16:49;12.80;99.90
7030;DHT22;3556;53.500;10.176;2023-06-04T06:19:15;12.90;99.90
7030;DHT22;3556;53.500;10.176;2023-06-04T06:21:40;13.00;99.90
7030;DHT22;3556;53.500;10.176;2023-06-04T06:24:06;13.20;99.90
7030;DHT22;3556;53.500;10.176;2023-06-04T06:26:32;13.30;99.90
7030;DHT22;3556;53.500;10.176;2023-06-04T06:28:57;13.50;99.90
7030;DHT22;3556;53.500;10.176;2023-06-04T06:31:23;13.60;99.90
7030;DHT22;3556;53.500;10.176;2023-06-04T06:33:49;13.80;99.90
7030;DHT22;3556;53.500;10.176;2023-06-04T06:36:14;13.90;99.90
7030;DHT22;3556;53.500;10.176;2023-06-04T06:38:44;14.10;99.90
7030;DHT22;3556;53.500;10.176;2023-06-04T06:41:09;14.20;99.90
7030;DHT22;3556;53.500;10.176;2023-06-04T06:43:35;14.30;99.90
7030;DHT22;3556;53.500;10.176;2023-06-04T06:46:01;14.40;99.90
7030;DHT22;3556;53.500;10.176;2023-06-04T06:48:26;14.50;99.90
7030;DHT22;3556;53.500;10.176;2023-06-04T06:50:52;14.70;99.90
7030;DHT22;3556;53.500;10.176;2023-06-04T06:53:17;14.80;99.90
7030;DHT22;3556;53.500;10.176;2023-06-04T06:55:43;14.90;99.90
7030;DHT22;3556;53.500;10.176;2023-06-04T06:58:08;15.00;99.90
7030;DHT22;3556;53.500;10.176;2023-06-04T07:00:34;15.10;99.90
7030;DHT22;3556;53.500;10.176;2023-06-04T07:03:00;15.20;99.90
7030;DHT22;3556;53.500;10.176;2023-06-04T07:05:26;15.30;99.90
7030;DHT22;3556;53.500;10.176;2023-06-04T07:07:51;15.40;99.90
7030;DHT22;3556;53.500;10.176;2023-06-04T07:10:17;15.50;99.90
7030;DHT22;3556;53.500;10.176;2023-06-04T07:12:43;15.70;99.90
7030;DHT22;3556;53.500;10.176;2023-06-04T07:15:08;15.80;99.90
7030;DHT22;3556;53.500;10.176;2023-06-04T07:17:34;15.90;99.90
7030;DHT22;3556;53.500;10.176;2023-06-04T07:20:00;16.10;99.90
7030;DHT22;3556;53.500;10.176;2023-06-04T07:22:26;16.20;99.90
7030;DHT22;3556;53.500;10.176;2023-06-04T07:24:52;16.30;99.90
7030;DHT22;3556;53.500;10.176;2023-06-04T07:27:18;16.50;99.90
7030;DHT22;3556;53.500;10.176;2023-06-04T07:29:44;16.60;99.90
7030;DHT22;3556;53.500;10.176;2023-06-04T07:32:10;16.70;99.90
7030;DHT22;3556;53.500;10.176;2023-06-04T07:34:37;16.90;99.90
7030;DHT22;3556;53.500;10.176;2023-06-04T07:37:03;16.90;99.90
7030;DHT22;3556;53.500;10.176;2023-06-04T07:39:29;17.10;99.90
7030;DHT22;3556;53.500;10.176;2023-06-04T07:41:54;17.20;99.90
7030;DHT22;3556;53.500;10.176;2023-06-04T07:44:20;17.30;99.90
7030;DHT22;3556;53.500;10.176;2023-06-04T07:46:46;17.40;99.90
7030;DHT22;3556;53.500;10.176;2023-06-04T07:49:11;17.50;99.90
7030;DHT22;3556;53.500;10.176;2023-06-04T07:51:37;17.60;99.50
7030;DHT22;3556;53.500;10.176;2023-06-04T07:54:03;17.80;99.90
7030;DHT22;3556;53.500;10.176;2023-06-04T07:56:29;17.90;99.20
7030;DHT22;3556;53.500;10.176;2023-06-04T07:58:54;18.00;98.20
7030;DHT22;3556;53.500;10.176;2023-06-04T08:01:21;18.10;98.50
7030;DHT22;3556;53.500;10.176;2023-06-04T08:03:47;18.10;97.20
7030;DHT22;3556;53.500;10.176;2023-06-04T08:06:12;18.20;97.20
7030;DHT22;3556;53.500;10.176;2023-06-04T08:08:45;18.20;96.90
7030;DHT22;3556;53.500;10.176;2023-06-04T08:11:12;18.30;96.90
7030;DHT22;3556;53.500;10.176;2023-06-04T08:13:38;18.40;95.90
7030;DHT22;3556;53.500;10.176;2023-06-04T08:16:04;18.50;96.30
7030;DHT22;3556;53.500;10.176;2023-06-04T08:18:30;18.60;95.10
7030;DHT22;3556;53.500;10.176;2023-06-04T08:20:55;18.60;93.40
7030;DHT22;3556;53.500;10.176;2023-06-04T08:23:21;18.60;94.00
7030;DHT22;3556;53.500;10.176;2023-06-04T08:25:47;18.70;94.70
7030;DHT22;3556;53.500;10.176;2023-06-04T08:28:16;18.70;93.40
7030;DHT22;3556;53.500;10.176;2023-06-04T08:30:44;18.90;93.10
7030;DHT22;3556;53.500;10.176;2023-06-04T08:33:11;19.00;91.50
7030;DHT22;3556;53.500;10.176;2023-06-04T08:35:37;19.00;91.20
7030;DHT22;3556;53.500;10.176;2023-06-04T08:38:02;19.10;92.10
7030;DHT22;3556;53.500;10.176;2023-06-04T08:40:28;19.20;91.80
7030;DHT22;3556;53.500;10.176;2023-06-04T08:42:56;19.40;90.90
7030;DHT22;3556;53.500;10.176;2023-06-04T08:45:24;19.50;90.90
7030;DHT22;3556;53.500;10.176;2023-06-04T08:47:51;19.60;91.00
7030;DHT22;3556;53.500;10.176;2023-06-04T08:50:19;19.80;90.60
7030;DHT22;3556;53.500;10.176;2023-06-04T08:52:45;19.90;90.70
7030;DHT22;3556;53.500;10.176;2023-06-04T08:55:11;20.00;87.90
7030;DHT22;3556;53.500;10.176;2023-06-04T08:57:39;20.10;87.00
7030;DHT22;3556;53.500;10.176;2023-06-04T09:00:06;20.20;86.80
7030;DHT22;3556;53.500;10.176;2023-06-04T09:02:35;20.20;84.50
7030;DHT22;3556;53.500;10.176;2023-06-04T09:05:03;20.30;86.40
7030;DHT22;3556;53.500;10.176;2023-06-04T09:07:30;20.30;84.80
7030;DHT22;3556;53.500;10.176;2023-06-04T09:09:58;20.40;86.80
7030;DHT22;3556;53.500;10.176;2023-06-04T09:12:25;20.40;84.80
7030;DHT22;3556;53.500;10.176;2023-06-04T09:14:51;20.50;83.50
7030;DHT22;3556;53.500;10.176;2023-06-04T09:17:24;20.60;80.00
7030;DHT22;3556;53.500;10.176;2023-06-04T09:19:51;20.50;82.80
7030;DHT22;3556;53.500;10.176;2023-06-04T09:22:16;20.60;83.20
7030;DHT22;3556;53.500;10.176;2023-06-04T09:24:44;20.50;78.80
7030;DHT22;3556;53.500;10.176;2023-06-04T09:27:17;20.60;82.70
7030;DHT22;3556;53.500;10.176;2023-06-04T09:29:54;20.70;80.40
7030;DHT22;3556;53.500;10.176;2023-06-04T09:34:48;20.70;78.10
7030;DHT22;3556;53.500;10.176;2023-06-04T09:37:17;20.80;80.50
7030;DHT22;3556;53.500;10.176;2023-06-04T09:39:44;20.80;76.40
7030;DHT22;3556;53.500;10.176;2023-06-04T09:42:10;20.80;73.90
7030;DHT22;3556;53.500;10.176;2023-06-04T09:44:45;20.80;71.90
7030;DHT22;3556;53.500;10.176;2023-06-04T09:47:14;20.90;77.90
7030;DHT22;3556;53.500;10.176;2023-06-04T09:49:43;21.10;82.60
7030;DHT22;3556;53.500;10.176;2023-06-04T09:52:10;21.30;76.30
7030;DHT22;3556;53.500;10.176;2023-06-04T09:54:40;21.40;75.70
7030;DHT22;3556;53.500;10.176;2023-06-04T09:57:17;21.50;75.40
7030;DHT22;3556;53.500;10.176;2023-06-04T09:59:48;21.60;73.40
7030;DHT22;3556;53.500;10.176;2023-06-04T10:02:19;21.70;75.00
7030;DHT22;3556;53.500;10.176;2023-06-04T10:04:49;21.90;79.10
7030;DHT22;3556;53.500;10.176;2023-06-04T10:07:18;22.10;72.90
7030;DHT22;3556;53.500;10.176;2023-06-04T10:09:44;22.00;70.60
7030;DHT22;3556;53.500;10.176;2023-06-04T10:12:14;22.10;74.80
7030;DHT22;3556;53.500;10.176;2023-06-04T10:14:54;22.20;70.00
7030;DHT22;3556;53.500;10.176;2023-06-04T10:17:23;22.30;67.20
7030;DHT22;3556;53.500;10.176;2023-06-04T10:19:51;22.20;65.10
7030;DHT22;3556;53.500;10.176;2023-06-04T10:22:20;22.20;64.40
7030;DHT22;3556;53.500;10.176;2023-06-04T10:24:45;22.00;64.00
7030;DHT22;3556;53.500;10.176;2023-06-04T10:27:12;22.00;66.40
7030;DHT22;3556;53.500;10.176;2023-06-04T10:29:39;22.10;66.50
7030;DHT22;3556;53.500;10.176;2023-06-04T10:32:05;22.20;68.50
7030;DHT22;3556;53.500;10.176;2023-06-04T10:34:31;22.50;69.50
7030;DHT22;3556;53.500;10.176;2023-06-04T10:36:57;22.80;71.10
7030;DHT22;3556;53.500;10.176;2023-06-04T10:39:27;23.10;66.10
7030;DHT22;3556;53.500;10.176;2023-06-04T10:42:04;23.30;63.30
7030;DHT22;3556;53.500;10.176;2023-06-04T10:44:31;23.40;65.20
7030;DHT22;3556;53.500;10.176;2023-06-04T10:46:58;23.50;63.30
7030;DHT22;3556;53.500;10.176;2023-06-04T10:49:30;23.60;64.70
7030;DHT22;3556;53.500;10.176;2023-06-04T10:52:10;23.60;61.00
7030;DHT22;3556;53.500;10.176;2023-06-04T10:54:35;23.40;62.00
7030;DHT22;3556;53.500;10.176;2023-06-04T10:57:13;23.30;60.00
7030;DHT22;3556;53.500;10.176;2023-06-04T10:59:39;23.20;61.50
7030;DHT22;3556;53.500;10.176;2023-06-04T11:02:08;23.30;63.00
7030;DHT22;3556;53.500;10.176;2023-06-04T11:04:35;23.50;61.80
7030;DHT22;3556;53.500;10.176;2023-06-04T11:07:05;23.70;62.10
7030;DHT22;3556;53.500;10.176;2023-06-04T11:09:35;24.00;57.80
7030;DHT22;3556;53.500;10.176;2023-06-04T11:12:02;24.00;61.60
7030;DHT22;3556;53.500;10.176;2023-06-04T11:14:27;24.10;59.90
7030;DHT22;3556;53.500;10.176;2023-06-04T11:16:53;24.20;56.90
7030;DHT22;3556;53.500;10.176;2023-06-04T11:19:19;24.20;58.90
7030;DHT22;3556;53.500;10.176;2023-06-04T11:21:45;24.50;59.20
7030;DHT22;3556;53.500;10.176;2023-06-04T11:24:14;24.70;58.70
7030;DHT22;3556;53.500;10.176;2023-06-04T11:26:40;25.10;59.10
7030;DHT22;3556;53.500;10.176;2023-06-04T11:29:07;25.20;55.90
7030;DHT22;3556;53.500;10.176;2023-06-04T11:31:42;25.00;57.40
7030;DHT22;3556;53.500;10.176;2023-06-04T11:34:08;25.20;57.50
7030;DHT22;3556;53.500;10.176;2023-06-04T11:36:34;25.50;57.40
7030;DHT22;3556;53.500;10.176;2023-06-04T11:39:02;25.60;51.80
7030;DHT22;3556;53.500;10.176;2023-06-04T11:41:30;25.50;53.10
7030;DHT22;3556;53.500;10.176;2023-06-04T11:43:56;25.30;53.90
7030;DHT22;3556;53.500;10.176;2023-06-04T11:46:23;25.20;53.60
7030;DHT22;3556;53.500;10.176;2023-06-04T11:48:52;25.30;55.40
7030;DHT22;3556;53.500;10.176;2023-06-04T11:51:19;25.50;55.50
7030;DHT22;3556;53.500;10.176;2023-06-04T11:53:46;25.80;53.40
7030;DHT22;3556;53.500;10.176;2023-06-04T11:56:12;25.90;50.50
7030;DHT22;3556;53.500;10.176;2023-06-04T11:58:38;26.00;54.60
7030;DHT22;3556;53.500;10.176;2023-06-04T12:01:06;26.20;50.30
7030;DHT22;3556;53.500;10.176;2023-06-04T12:03:39;26.20;50.70
7030;DHT22;3556;53.500;10.176;2023-06-04T12:06:16;26.20;47.40
7030;DHT22;3556;53.500;10.176;2023-06-04T12:08:53;26.00;52.20
7030;DHT22;3556;53.500;10.176;2023-06-04T12:11:33;26.10;51.40
7030;DHT22;3556;53.500;10.176;2023-06-04T12:14:07;26.30;49.80
7030;DHT22;3556;53.500;10.176;2023-06-04T12:16:33;26.50;52.50
7030;DHT22;3556;53.500;10.176;2023-06-04T12:19:10;26.60;53.70
7030;DHT22;3556;53.500;10.176;2023-06-04T12:21:37;27.00;54.10
7030;DHT22;3556;53.500;10.176;2023-06-04T12:24:06;27.20;48.60
7030;DHT22;3556;53.500;10.176;2023-06-04T12:26:33;27.50;49.70
7030;DHT22;3556;53.500;10.176;2023-06-04T12:29:09;27.60;49.10
7030;DHT22;3556;53.500;10.176;2023-06-04T12:31:42;27.60;49.00
7030;DHT22;3556;53.500;10.176;2023-06-04T12:34:09;27.70;49.10
7030;DHT22;3556;53.500;10.176;2023-06-04T12:36:36;27.90;46.30
7030;DHT22;3556;53.500;10.176;2023-06-04T12:39:03;27.90;46.30
7030;DHT22;3556;53.500;10.176;2023-06-04T12:41:29;28.10;47.70
7030;DHT22;3556;53.500;10.176;2023-06-04T12:43:55;28.40;45.50
7030;DHT22;3556;53.500;10.176;2023-06-04T12:46:22;28.60;45.30
7030;DHT22;3556;53.500;10.176;2023-06-04T12:48:50;28.70;44.40
7030;DHT22;3556;53.500;10.176;2023-06-04T12:51:16;28.80;46.00
7030;DHT22;3556;53.500;10.176;2023-06-04T12:53:42;28.50;42.90
7030;DHT22;3556;53.500;10.176;2023-06-04T12:56:08;28.30;44.60
7030;DHT22;3556;53.500;10.176;2023-06-04T12:58:34;28.30;46.00
7030;DHT22;3556;53.500;10.176;2023-06-04T13:01:00;28.40;45.90
7030;DHT22;3556;53.500;10.176;2023-06-04T13:03:26;28.50;46.30
7030;DHT22;3556;53.500;10.176;2023-06-04T13:05:52;28.70;45.20
7030;DHT22;3556;53.500;10.176;2023-06-04T13:08:19;28.80;43.50
7030;DHT22;3556;53.500;10.176;2023-06-04T13:10:46;28.70;43.00
7030;DHT22;3556;53.500;10.176;2023-06-04T13:13:12;28.70;47.10
7030;DHT22;3556;53.500;10.176;2023-06-04T13:15:37;28.90;44.00
7030;DHT22;3556;53.500;10.176;2023-06-04T13:18:03;29.00;43.10
7030;DHT22;3556;53.500;10.176;2023-06-04T13:20:29;29.00;42.60
7030;DHT22;3556;53.500;10.176;2023-06-04T13:22:54;28.90;43.20
7030;DHT22;3556;53.500;10.176;2023-06-04T13:25:20;29.10;45.40
7030;DHT22;3556;53.500;10.176;2023-06-04T13:27:48;29.00;41.70
7030;DHT22;3556;53.500;10.176;2023-06-04T13:30:14;28.90;43.70
7030;DHT22;3556;53.500;10.176;2023-06-04T13:32:39;28.90;45.70
7030;DHT22;3556;53.500;10.176;2023-06-04T13:35:05;29.10;44.90
7030;DHT22;3556;53.500;10.176;2023-06-04T13:37:31;29.30;43.40
7030;DHT22;3556;53.500;10.176;2023-06-04T13:39:57;29.30;42.90
7030;DHT22;3556;53.500;10.176;2023-06-04T13:42:22;29.40;43.50
7030;DHT22;3556;53.500;10.176;2023-06-04T13:44:48;29.40;43.80
7030;DHT22;3556;53.500;10.176;2023-06-04T13:47:14;29.40;43.00
7030;DHT22;3556;53.500;10.176;2023-06-04T13:49:39;29.30;41.60
7030;DHT22;3556;53.500;10.176;2023-06-04T13:52:05;29.30;42.40
7030;DHT22;3556;53.500;10.176;2023-06-04T13:54:31;29.20;43.60
7030;DHT22;3556;53.500;10.176;2023-06-04T13:56:56;29.20;41.30
7030;DHT22;3556;53.500;10.176;2023-06-04T13:59:22;29.30;43.00
7030;DHT22;3556;53.500;10.176;2023-06-04T14:01:48;29.60;42.60
7030;DHT22;3556;53.500;10.176;2023-06-04T14:04:13;29.60;40.30
7030;DHT22;3556;53.500;10.176;2023-06-04T14:06:39;29.60;41.00
7030;DHT22;3556;53.500;10.176;2023-06-04T14:09:05;29.50;40.30
7030;DHT22;3556;53.500;10.176;2023-06-04T14:11:34;29.30;39.50
7030;DHT22;3556;53.500;10.176;2023-06-04T14:14:01;28.90;38.80
7030;DHT22;3556;53.500;10.176;2023-06-04T14:16:26;28.70;41.20
7030;DHT22;3556;53.500;10.176;2023-06-04T14:18:52;28.50;41.80
7030;DHT22;3556;53.500;10.176;2023-06-04T14:21:17;28.50;41.00
7030;DHT22;3556;53.500;10.176;2023-06-04T14:23:43;28.10;41.80
7030;DHT22;3556;53.500;10.176;2023-06-04T14:26:09;28.10;42.60
7030;DHT22;3556;53.500;10.176;2023-06-04T14:28:35;28.40;47.40
7030;DHT22;3556;53.500;10.176;2023-06-04T14:31:01;28.60;43.80
7030;DHT22;3556;53.500;10.176;2023-06-04T14:33:27;28.80;41.40
7030;DHT22;3556;53.500;10.176;2023-06-04T14:35:52;28.70;41.60
7030;DHT22;3556;53.500;10.176;2023-06-04T14:38:18;28.50;41.70
7030;DHT22;3556;53.500;10.176;2023-06-04T14:40:44;28.20;41.80
7030;DHT22;3556;53.500;10.176;2023-06-04T14:43:12;28.30;44.50
7030;DHT22;3556;53.500;10.176;2023-06-04T14:45:38;28.30;39.90
7030;DHT22;3556;53.500;10.176;2023-06-04T14:48:05;28.00;40.80
7030;DHT22;3556;53.500;10.176;2023-06-04T14:50:31;27.90;41.30
7030;DHT22;3556;53.500;10.176;2023-06-04T14:52:56;27.80;43.10
7030;DHT22;3556;53.500;10.176;2023-06-04T14:55:23;27.90;43.30
7030;DHT22;3556;53.500;10.176;2023-06-04T14:57:50;28.00;43.70
7030;DHT22;3556;53.500;10.176;2023-06-04T15:00:16;28.00;41.80
7030;DHT22;3556;53.500;10.176;2023-06-04T15:02:41;28.10;45.20
7030;DHT22;3556;53.500;10.176;2023-06-04T15:05:07;28.20;43.20
7030;DHT22;3556;53.500;10.176;2023-06-04T15:07:33;28.30;43.90
7030;DHT22;3556;53.500;10.176;2023-06-04T15:09:59;28.20;42.20
7030;DHT22;3556;53.500;10.176;2023-06-04T15:12:27;27.90;42.40
7030;DHT22;3556;53.500;10.176;2023-06-04T15:14:52;27.60;43.40
7030;DHT22;3556;53.500;10.176;2023-06-04T15:17:18;27.60;46.10
7030;DHT22;3556;53.500;10.176;2023-06-04T15:19:44;27.60;44.20
7030;DHT22;3556;53.500;10.176;2023-06-04T15:22:09;27.50;43.70
7030;DHT22;3556;53.500;10.176;2023-06-04T15:24:35;27.50;44.00
7030;DHT22;3556;53.500;10.176;2023-06-04T15:27:00;26.90;41.70
7030;DHT22;3556;53.500;10.176;2023-06-04T15:29:26;26.60;44.90
7030;DHT22;3556;53.500;10.176;2023-06-04T15:31:52;26.50;47.00
7030;DHT22;3556;53.500;10.176;2023-06-04T15:34:20;26.40;43.50
7030;DHT22;3556;53.500;10.176;2023-06-04T15:36:46;26.40;44.20
7030;DHT22;3556;53.500;10.176;2023-06-04T15:39:12;26.40;45.20
7030;DHT22;3556;53.500;10.176;2023-06-04T15:41:38;26.40;46.40
7030;DHT22;3556;53.500;10.176;2023-06-04T15:44:03;26.30;45.70
7030;DHT22;3556;53.500;10.176;2023-06-04T15:46:29;26.20;46.30
7030;DHT22;3556;53.500;10.176;2023-06-04T15:48:55;26.10;46.60
7030;DHT22;3556;53.500;10.176;2023-06-04T15:51:21;26.10;44.90
7030;DHT22;3556;53.500;10.176;2023-06-04T15:53:47;25.90;47.90
7030;DHT22;3556;53.500;10.176;2023-06-04T15:56:12;25.90;48.10